sensor_id;sensor_type;location;lat;lon;timestamp;temperature;humidity
30764;DHT22;17497;51.476;7.770;2023-04-25T00:00:12;5.40;99.90
30764;DHT22;17497;51.476;7.770;2023-04-25T00:02:39;5.40;99.90
30764;DHT22;17497;51.476;7.770;2023-04-25T00:05:06;5.30;99.90
30764;DHT22;17497;51.476;7.770;2023-04-25T00:07:33;5.30;99.90
30764;DHT22;17497;51.476;7.770;2023-04-25T00:10:00;5.30;99.90
30764;DHT22;17497;51.476;7.770;2023-04-25T00:12:27;5.20;99.90
30764;DHT22;17497;51.476;7.770;2023-04-25T00:14:57;5.20;99.90
30764;DHT22;17497;51.476;7.770;2023-04-25T00:17:24;5.20;99.90
30764;DHT22;17497;51.476;7.770;2023-04-25T00:19:51;5.30;99.90
30764;DHT22;17497;51.476;7.770;2023-04-25T00:22:18;5.40;99.90
30764;DHT22;17497;51.476;7.770;2023-04-25T00:24:44;5.50;99.90
30764;DHT22;17497;51.476;7.770;2023-04-25T00:27:11;5.60;99.90
30764;DHT22;17497;51.476;7.770;2023-04-25T00:29:37;5.60;99.90
30764;DHT22;17497;51.476;7.770;2023-04-25T00:32:04;5.60;99.90
30764;DHT22;17497;51.476;7.770;2023-04-25T00:34:31;5.60;99.90
30764;DHT22;17497;51.476;7.770;2023-04-25T00:36:57;5.70;99.90
30764;DHT22;17497;51.476;7.770;2023-04-25T00:39:24;5.70;99.90
30764;DHT22;17497;51.476;7.770;2023-04-25T00:41:51;5.70;99.90
30764;DHT22;17497;51.476;7.770;2023-04-25T00:44:20;5.70;99.90
30764;DHT22;17497;51.476;7.770;2023-04-25T00:46:47;5.70;99.90
30764;DHT22;17497;51.476;7.770;2023-04-25T00:49:15;5.80;99.90
30764;DHT22;17497;51.476;7.770;2023-04-25T00:51:43;5.80;99.90
30764;DHT22;17497;51.476;7.770;2023-04-25T00:54:13;5.80;99.90
30764;DHT22;17497;51.476;7.770;2023-04-25T00:56:40;5.80;99.90
30764;DHT22;17497;51.476;7.770;2023-04-25T00:59:07;5.80;99.90
30764;DHT22;17497;51.476;7.770;2023-04-25T01:01:34;5.90;99.90
30764;DHT22;17497;51.476;7.770;2023-04-25T01:04:01;5.90;99.90
30764;DHT22;17497;51.476;7.770;2023-04-25T01:06:28;5.90;99.90
30764;DHT22;17497;51.476;7.770;2023-04-25T01:08:55;6.00;99.90
30764;DHT22;17497;51.476;7.770;2023-04-25T01:11:22;6.00;99.90
30764;DHT22;17497;51.476;7.770;2023-04-25T01:13:49;6.00;99.90
30764;DHT22;17497;51.476;7.770;2023-04-25T01:16:16;6.00;99.90
30764;DHT22;17497;51.476;7.770;2023-04-25T01:18:42;6.00;99.90
30764;DHT22;17497;51.476;7.770;2023-04-25T01:21:10;6.00;99.90
30764;DHT22;17497;51.476;7.770;2023-04-25T01:23:37;6.00;99.90
30764;DHT22;17497;51.476;7.770;2023-04-25T01:26:04;6.00;99.90
30764;DHT22;17497;51.476;7.770;2023-04-25T01:28:33;6.00;99.90
30764;DHT22;17497;51.476;7.770;2023-04-25T01:30:59;6.00;99.90
30764;DHT22;17497;51.476;7.770;2023-04-25T01:33:26;6.00;99.90
30764;DHT22;17497;51.476;7.770;2023-04-25T01:35:53;6.00;99.90
30764;DHT22;17497;51.476;7.770;2023-04-25T01:38:20;6.00;99.90
30764;DHT22;17497;51.476;7.770;2023-04-25T01:40:46;6.00;99.90
30764;DHT22;17497;51.476;7.770;2023-04-25T01:43:15;6.00;99.90
30764;DHT22;17497;51.476;7.770;2023-04-25T01:45:42;6.00;99.90
30764;DHT22;17497;51.476;7.770;2023-04-25T01:48:09;6.00;99.90
30764;DHT22;17497;51.476;7.770;2023-04-25T01:50:37;6.00;99.90
30764;DHT22;17497;51.476;7.770;2023-04-25T01:53:03;6.00;99.90
30764;DHT22;17497;51.476;7.770;2023-04-25T01:55:30;6.00;99.90
30764;DHT22;17497;51.476;7.770;2023-04-25T01:57:57;6.00;99.90
30764;DHT22;17497;51.476;7.770;2023-04-25T02:00:24;6.00;99.90
30764;DHT22;17497;51.476;7.770;2023-04-25T02:02:51;6.00;99.90
30764;DHT22;17497;51.476;7.770;2023-04-25T02:05:19;5.90;99.90
30764;DHT22;17497;51.476;7.770;2023-04-25T02:07:47;5.80;99.90
30764;DHT22;17497;51.476;7.770;2023-04-25T02:10:14;5.80;99.90
30764;DHT22;17497;51.476;7.770;2023-04-25T02:12:41;5.80;99.90
30764;DHT22;17497;51.476;7.770;2023-04-25T02:15:08;5.90;99.90
30764;DHT22;17497;51.476;7.770;2023-04-25T02:17:34;5.90;99.90
30764;DHT22;17497;51.476;7.770;2023-04-25T02:20:01;5.90;99.90
30764;DHT22;17497;51.476;7.770;2023-04-25T02:22:27;5.80;99.90
30764;DHT22;17497;51.476;7.770;2023-04-25T02:24:56;5.70;99.90
30764;DHT22;17497;51.476;7.770;2023-04-25T02:27:23;5.60;99.90
30764;DHT22;17497;51.476;7.770;2023-04-25T02:29:49;5.60;99.90
30764;DHT22;17497;51.476;7.770;2023-04-25T02:32:16;5.50;99.90
30764;DHT22;17497;51.476;7.770;2023-04-25T02:34:43;5.50;99.90
30764;DHT22;17497;51.476;7.770;2023-04-25T02:37:09;5.50;99.90
30764;DHT22;17497;51.476;7.770;2023-04-25T02:39:36;5.50;99.90
30764;DHT22;17497;51.476;7.770;2023-04-25T02:42:03;5.50;99.90
30764;DHT22;17497;51.476;7.770;2023-04-25T02:44:29;5.50;99.90
30764;DHT22;17497;51.476;7.770;2023-04-25T02:46:56;5.60;99.90
30764;DHT22;17497;51.476;7.770;2023-04-25T02:49:22;5.60;99.90
30764;DHT22;17497;51.476;7.770;2023-04-25T02:51:49;5.50;99.90
30764;DHT22;17497;51.476;7.770;2023-04-25T02:54:16;5.50;99.90
30764;DHT22;17497;51.476;7.770;2023-04-25T02:56:42;5.50;99.90
30764;DHT22;17497;51.476;7.770;2023-04-25T02:59:09;5.50;99.90
30764;DHT22;17497;51.476;7.770;2023-04-25T03:01:35;5.40;99.90
30764;DHT22;17497;51.476;7.770;2023-04-25T03:04:02;5.50;99.90
30764;DHT22;17497;51.476;7.770;2023-04-25T03:06:29;5.50;99.90
30764;DHT22;17497;51.476;7.770;2023-04-25T03:08:55;5.50;99.90
30764;DHT22;17497;51.476;7.770;2023-04-25T03:11:25;5.50;99.90
30764;DHT22;17497;51.476;7.770;2023-04-25T03:13:52;5.50;99.90
30764;DHT22;17497;51.476;7.770;2023-04-25T03:16:19;5.60;99.90
30764;DHT22;17497;51.476;7.770;2023-04-25T03:18:46;5.60;99.90
30764;DHT22;17497;51.476;7.770;2023-04-25T03:21:12;5.50;99.90
30764;DHT22;17497;51.476;7.770;2023-04-25T03:23:39;5.60;99.90
30764;DHT22;17497;51.476;7.770;2023-04-25T03:26:06;5.50;99.90
30764;DHT22;17497;51.476;7.770;2023-04-25T03:28:32;5.60;99.90
30764;DHT22;17497;51.476;7.770;2023-04-25T03:30:59;5.50;99.90
30764;DHT22;17497;51.476;7.770;2023-04-25T03:33:25;5.50;99.90
30764;DHT22;17497;51.476;7.770;2023-04-25T03:35:52;5.50;99.90
30764;DHT22;17497;51.476;7.770;2023-04-25T03:38:19;5.50;99.90
30764;DHT22;17497;51.476;7.770;2023-04-25T03:40:46;5.50;99.90
30764;DHT22;17497;51.476;7.770;2023-04-25T03:43:12;5.50;99.90
30764;DHT22;17497;51.476;7.770;2023-04-25T03:45:39;5.60;99.90
30764;DHT22;17497;51.476;7.770;2023-04-25T03:48:05;5.60;99.90
30764;DHT22;17497;51.476;7.770;2023-04-25T03:50:32;5.60;99.90
30764;DHT22;17497;51.476;7.770;2023-04-25T03:52:59;5.60;99.90
30764;DHT22;17497;51.476;7.770;2023-04-25T03:55:26;5.60;99.90
30764;DHT22;17497;51.476;7.770;2023-04-25T03:57:52;5.60;99.90
30764;DHT22;17497;51.476;7.770;2023-04-25T04:00:19;5.60;99.90
30764;DHT22;17497;51.476;7.770;2023-04-25T04:02:45;5.60;99.90
30764;DHT22;17497;51.476;7.770;2023-04-25T04:05:12;5.60;99.90
30764;DHT22;17497;51.476;7.770;2023-04-25T04:07:39;5.60;99.90
30764;DHT22;17497;51.476;7.770;2023-04-25T04:10:06;5.60;99.90
30764;DHT22;17497;51.476;7.770;2023-04-25T04:12:33;5.60;99.90
30764;DHT22;17497;51.476;7.770;2023-04-25T04:15:01;5.60;99.90
30764;DHT22;17497;51.476;7.770;2023-04-25T04:17:28;5.60;99.90
30764;DHT22;17497;51.476;7.770;2023-04-25T04:19:54;5.70;99.90
30764;DHT22;17497;51.476;7.770;2023-04-25T04:22:21;5.70;99.90
30764;DHT22;17497;51.476;7.770;2023-04-25T04:24:48;5.60;99.90
30764;DHT22;17497;51.476;7.770;2023-04-25T04:27:19;5.60;99.90
30764;DHT22;17497;51.476;7.770;2023-04-25T04:29:45;5.60;99.90
30764;DHT22;17497;51.476;7.770;2023-04-25T04:32:13;5.60;99.90
30764;DHT22;17497;51.476;7.770;2023-04-25T04:34:39;5.60;99.90
30764;DHT22;17497;51.476;7.770;2023-04-25T04:37:07;5.60;99.90
30764;DHT22;17497;51.476;7.770;2023-04-25T04:39:34;5.60;99.90
30764;DHT22;17497;51.476;7.770;2023-04-25T04:42:00;5.60;99.90
30764;DHT22;17497;51.476;7.770;2023-04-25T04:44:31;5.60;99.90
30764;DHT22;17497;51.476;7.770;2023-04-25T04:47:01;5.60;99.90
30764;DHT22;17497;51.476;7.770;2023-04-25T04:49:30;5.60;99.90
30764;DHT22;17497;51.476;7.770;2023-04-25T04:51:56;5.70;99.90
30764;DHT22;17497;51.476;7.770;2023-04-25T04:54:25;5.60;99.90
30764;DHT22;17497;51.476;7.770;2023-04-25T04:56:51;5.60;99.90
30764;DHT22;17497;51.476;7.770;2023-04-25T04:59:18;5.60;99.90
30764;DHT22;17497;51.476;7.770;2023-04-25T05:01:45;5.60;99.90
30764;DHT22;17497;51.476;7.770;2023-04-25T05:04:13;5.60;99.90
30764;DHT22;17497;51.476;7.770;2023-04-25T05:06:40;5.60;99.90
30764;DHT22;17497;51.476;7.770;2023-04-25T05:09:06;5.60;99.90
30764;DHT22;17497;51.476;7.770;2023-04-25T05:11:33;5.60;99.90
30764;DHT22;17497;51.476;7.770;2023-04-25T05:14:00;5.60;99.90
30764;DHT22;17497;51.476;7.770;2023-04-25T05:16:26;5.60;99.90
30764;DHT22;17497;51.476;7.770;2023-04-25T05:18:53;5.60;99.90
30764;DHT22;17497;51.476;7.770;2023-04-25T05:21:20;5.60;99.90
30764;DHT22;17497;51.476;7.770;2023-04-25T05:23:46;5.50;99.90
30764;DHT22;17497;51.476;7.770;2023-04-25T05:26:13;5.50;99.90
30764;DHT22;17497;51.476;7.770;2023-04-25T05:28:40;5.50;99.90
30764;DHT22;17497;51.476;7.770;2023-04-25T05:31:09;5.50;99.90
30764;DHT22;17497;51.476;7.770;2023-04-25T05:33:36;5.60;99.90
30764;DHT22;17497;51.476;7.770;2023-04-25T05:36:03;5.50;99.90
30764;DHT22;17497;51.476;7.770;2023-04-25T05:38:29;5.50;99.90
30764;DHT22;17497;51.476;7.770;2023-04-25T05:40:57;5.50;99.90
30764;DHT22;17497;51.476;7.770;2023-04-25T05:43:24;5.50;99.90
30764;DHT22;17497;51.476;7.770;2023-04-25T05:45:51;5.50;99.90
30764;DHT22;17497;51.476;7.770;2023-04-25T05:48:17;5.40;99.90
30764;DHT22;17497;51.476;7.770;2023-04-25T05:50:44;5.40;99.90
30764;DHT22;17497;51.476;7.770;2023-04-25T05:53:11;5.30;99.90
30764;DHT22;17497;51.476;7.770;2023-04-25T05:55:37;5.40;99.90
30764;DHT22;17497;51.476;7.770;2023-04-25T05:58:05;5.40;99.90
30764;DHT22;17497;51.476;7.770;2023-04-25T06:00:32;5.50;99.90
30764;DHT22;17497;51.476;7.770;2023-04-25T06:02:59;5.40;99.90
30764;DHT22;17497;51.476;7.770;2023-04-25T06:05:26;5.50;99.90
30764;DHT22;17497;51.476;7.770;2023-04-25T06:07:53;5.60;99.90
30764;DHT22;17497;51.476;7.770;2023-04-25T06:10:21;5.60;99.90
30764;DHT22;17497;51.476;7.770;2023-04-25T06:12:47;5.60;99.90
30764;DHT22;17497;51.476;7.770;2023-04-25T06:15:14;5.60;99.90
30764;DHT22;17497;51.476;7.770;2023-04-25T06:17:53;5.70;99.90
30764;DHT22;17497;51.476;7.770;2023-04-25T06:20:21;5.60;99.90
30764;DHT22;17497;51.476;7.770;2023-04-25T06:22:49;5.60;99.90
30764;DHT22;17497;51.476;7.770;2023-04-25T06:25:16;5.60;99.90
30764;DHT22;17497;51.476;7.770;2023-04-25T06:27:43;5.70;99.90
30764;DHT22;17497;51.476;7.770;2023-04-25T06:30:10;5.70;99.90
30764;DHT22;17497;51.476;7.770;2023-04-25T06:32:38;5.80;99.90
30764;DHT22;17497;51.476;7.770;2023-04-25T06:35:05;5.90;99.90
30764;DHT22;17497;51.476;7.770;2023-04-25T06:37:32;6.00;99.90
30764;DHT22;17497;51.476;7.770;2023-04-25T06:39:59;6.10;99.90
30764;DHT22;17497;51.476;7.770;2023-04-25T06:44:59;6.30;99.90
30764;DHT22;17497;51.476;7.770;2023-04-25T06:47:26;6.40;99.90
30764;DHT22;17497;51.476;7.770;2023-04-25T06:49:53;6.40;99.90
30764;DHT22;17497;51.476;7.770;2023-04-25T06:52:20;6.40;99.90
30764;DHT22;17497;51.476;7.770;2023-04-25T06:54:46;6.20;99.90
30764;DHT22;17497;51.476;7.770;2023-04-25T06:57:13;6.20;99.90
30764;DHT22;17497;51.476;7.770;2023-04-25T06:59:40;6.30;99.90
30764;DHT22;17497;51.476;7.770;2023-04-25T07:02:07;6.30;99.90
30764;DHT22;17497;51.476;7.770;2023-04-25T07:04:34;6.40;99.90
30764;DHT22;17497;51.476;7.770;2023-04-25T07:07:01;6.40;99.90
30764;DHT22;17497;51.476;7.770;2023-04-25T07:09:29;6.40;99.90
30764;DHT22;17497;51.476;7.770;2023-04-25T07:11:56;6.30;99.90
30764;DHT22;17497;51.476;7.770;2023-04-25T07:14:23;6.50;99.90
30764;DHT22;17497;51.476;7.770;2023-04-25T07:16:50;6.30;99.90
30764;DHT22;17497;51.476;7.770;2023-04-25T07:19:17;6.30;99.90
30764;DHT22;17497;51.476;7.770;2023-04-25T07:21:44;6.20;99.90
30764;DHT22;17497;51.476;7.770;2023-04-25T07:24:11;6.30;99.90
30764;DHT22;17497;51.476;7.770;2023-04-25T07:26:38;6.40;99.90
30764;DHT22;17497;51.476;7.770;2023-04-25T07:29:04;6.50;99.90
30764;DHT22;17497;51.476;7.770;2023-04-25T07:31:31;6.60;99.90
30764;DHT22;17497;51.476;7.770;2023-04-25T07:33:58;6.70;99.90
30764;DHT22;17497;51.476;7.770;2023-04-25T07:36:27;6.80;99.90
30764;DHT22;17497;51.476;7.770;2023-04-25T07:38:54;6.80;99.90
30764;DHT22;17497;51.476;7.770;2023-04-25T07:41:20;6.70;99.90
30764;DHT22;17497;51.476;7.770;2023-04-25T07:43:48;6.60;99.90
30764;DHT22;17497;51.476;7.770;2023-04-25T07:46:14;6.70;99.90
30764;DHT22;17497;51.476;7.770;2023-04-25T07:48:41;6.90;99.90
30764;DHT22;17497;51.476;7.770;2023-04-25T07:51:08;7.10;99.90
30764;DHT22;17497;51.476;7.770;2023-04-25T07:53:35;7.30;99.90
30764;DHT22;17497;51.476;7.770;2023-04-25T07:56:04;7.20;99.90
30764;DHT22;17497;51.476;7.770;2023-04-25T07:58:31;7.40;99.90
30764;DHT22;17497;51.476;7.770;2023-04-25T08:00:58;7.40;99.90
30764;DHT22;17497;51.476;7.770;2023-04-25T08:03:24;7.60;99.90
30764;DHT22;17497;51.476;7.770;2023-04-25T08:05:51;7.60;99.90
30764;DHT22;17497;51.476;7.770;2023-04-25T08:08:18;7.60;99.90
30764;DHT22;17497;51.476;7.770;2023-04-25T08:10:45;7.40;99.90
30764;DHT22;17497;51.476;7.770;2023-04-25T08:13:14;7.20;99.90
30764;DHT22;17497;51.476;7.770;2023-04-25T08:15:41;7.20;99.90
30764;DHT22;17497;51.476;7.770;2023-04-25T08:18:08;7.30;99.90
30764;DHT22;17497;51.476;7.770;2023-04-25T08:20:35;7.30;99.90
30764;DHT22;17497;51.476;7.770;2023-04-25T08:23:02;7.30;99.90
30764;DHT22;17497;51.476;7.770;2023-04-25T08:25:29;7.30;99.90
30764;DHT22;17497;51.476;7.770;2023-04-25T08:27:55;7.40;99.90
30764;DHT22;17497;51.476;7.770;2023-04-25T08:30:23;7.60;99.90
30764;DHT22;17497;51.476;7.770;2023-04-25T08:32:50;7.80;99.90
30764;DHT22;17497;51.476;7.770;2023-04-25T08:35:17;8.00;99.90
30764;DHT22;17497;51.476;7.770;2023-04-25T08:37:44;7.80;99.90
30764;DHT22;17497;51.476;7.770;2023-04-25T08:40:11;8.10;99.90
30764;DHT22;17497;51.476;7.770;2023-04-25T08:42:38;7.90;99.90
30764;DHT22;17497;51.476;7.770;2023-04-25T08:45:08;7.90;99.90
30764;DHT22;17497;51.476;7.770;2023-04-25T08:47:35;7.90;99.90
30764;DHT22;17497;51.476;7.770;2023-04-25T08:50:03;7.90;99.90
30764;DHT22;17497;51.476;7.770;2023-04-25T08:52:32;7.70;99.90
30764;DHT22;17497;51.476;7.770;2023-04-25T08:55:00;7.50;99.90
30764;DHT22;17497;51.476;7.770;2023-04-25T08:57:27;7.40;99.90
30764;DHT22;17497;51.476;7.770;2023-04-25T08:59:55;7.50;99.90
30764;DHT22;17497;51.476;7.770;2023-04-25T09:02:23;7.50;99.90
30764;DHT22;17497;51.476;7.770;2023-04-25T09:04:51;7.60;99.90
30764;DHT22;17497;51.476;7.770;2023-04-25T09:07:18;7.80;99.90
30764;DHT22;17497;51.476;7.770;2023-04-25T09:09:47;8.10;99.90
30764;DHT22;17497;51.476;7.770;2023-04-25T09:12:14;8.20;99.90
30764;DHT22;17497;51.476;7.770;2023-04-25T09:14:41;8.40;99.90
30764;DHT22;17497;51.476;7.770;2023-04-25T09:17:09;8.50;99.90
30764;DHT22;17497;51.476;7.770;2023-04-25T09:19:36;8.40;99.90
30764;DHT22;17497;51.476;7.770;2023-04-25T09:22:07;8.30;99.90
30764;DHT22;17497;51.476;7.770;2023-04-25T09:24:41;8.30;99.90
30764;DHT22;17497;51.476;7.770;2023-04-25T09:27:13;8.30;99.90
30764;DHT22;17497;51.476;7.770;2023-04-25T09:29:44;8.50;99.90
30764;DHT22;17497;51.476;7.770;2023-04-25T09:34:41;8.70;99.90
30764;DHT22;17497;51.476;7.770;2023-04-25T09:37:09;8.80;99.90
30764;DHT22;17497;51.476;7.770;2023-04-25T09:39:37;8.90;99.90
30764;DHT22;17497;51.476;7.770;2023-04-25T09:42:04;8.80;99.90
30764;DHT22;17497;51.476;7.770;2023-04-25T09:44:31;8.50;99.90
30764;DHT22;17497;51.476;7.770;2023-04-25T09:46:58;8.60;99.90
30764;DHT22;17497;51.476;7.770;2023-04-25T09:49:25;8.50;99.90
30764;DHT22;17497;51.476;7.770;2023-04-25T09:51:54;8.50;99.90
30764;DHT22;17497;51.476;7.770;2023-04-25T09:54:22;8.60;99.90
30764;DHT22;17497;51.476;7.770;2023-04-25T09:56:50;8.60;99.90
30764;DHT22;17497;51.476;7.770;2023-04-25T09:59:21;8.70;99.90
30764;DHT22;17497;51.476;7.770;2023-04-25T10:01:49;8.90;99.90
30764;DHT22;17497;51.476;7.770;2023-04-25T10:04:21;9.10;99.90
30764;DHT22;17497;51.476;7.770;2023-04-25T10:06:49;9.10;99.90
30764;DHT22;17497;51.476;7.770;2023-04-25T10:09:17;9.20;99.90
30764;DHT22;17497;51.476;7.770;2023-04-25T10:11:46;9.00;99.90
30764;DHT22;17497;51.476;7.770;2023-04-25T10:14:14;8.90;99.90
30764;DHT22;17497;51.476;7.770;2023-04-25T10:16:42;8.80;99.90
30764;DHT22;17497;51.476;7.770;2023-04-25T10:19:09;8.70;99.90
30764;DHT22;17497;51.476;7.770;2023-04-25T10:21:42;8.60;99.90
30764;DHT22;17497;51.476;7.770;2023-04-25T10:24:12;8.30;99.90
30764;DHT22;17497;51.476;7.770;2023-04-25T10:26:38;8.30;99.90
30764;DHT22;17497;51.476;7.770;2023-04-25T10:29:05;8.50;99.90
30764;DHT22;17497;51.476;7.770;2023-04-25T10:31:32;8.60;99.90
30764;DHT22;17497;51.476;7.770;2023-04-25T10:33:59;8.80;99.90
30764;DHT22;17497;51.476;7.770;2023-04-25T10:36:25;8.90;99.90
30764;DHT22;17497;51.476;7.770;2023-04-25T10:38:53;8.90;99.90
30764;DHT22;17497;51.476;7.770;2023-04-25T10:41:21;8.80;99.90
30764;DHT22;17497;51.476;7.770;2023-04-25T10:43:49;9.30;99.90
30764;DHT22;17497;51.476;7.770;2023-04-25T10:46:27;9.50;99.90
30764;DHT22;17497;51.476;7.770;2023-04-25T10:48:56;9.90;99.90
30764;DHT22;17497;51.476;7.770;2023-04-25T10:51:24;10.40;99.90
30764;DHT22;17497;51.476;7.770;2023-04-25T10:56:21;12.10;99.90
30764;DHT22;17497;51.476;7.770;2023-04-25T10:58:48;12.10;99.90
30764;DHT22;17497;51.476;7.770;2023-04-25T11:01:21;11.20;99.90
30764;DHT22;17497;51.476;7.770;2023-04-25T11:03:48;10.40;99.90
30764;DHT22;17497;51.476;7.770;2023-04-25T11:06:20;10.10;99.90
30764;DHT22;17497;51.476;7.770;2023-04-25T11:08:50;9.70;99.90
30764;DHT22;17497;51.476;7.770;2023-04-25T11:11:18;9.30;99.90
30764;DHT22;17497;51.476;7.770;2023-04-25T11:13:48;9.00;99.90
30764;DHT22;17497;51.476;7.770;2023-04-25T11:16:16;8.90;99.90
30764;DHT22;17497;51.476;7.770;2023-04-25T11:18:52;8.90;99.90
30764;DHT22;17497;51.476;7.770;2023-04-25T11:21:19;8.90;99.90
30764;DHT22;17497;51.476;7.770;2023-04-25T11:23:46;9.10;99.90
30764;DHT22;17497;51.476;7.770;2023-04-25T11:26:13;9.20;99.90
30764;DHT22;17497;51.476;7.770;2023-04-25T11:28:40;9.40;99.90
30764;DHT22;17497;51.476;7.770;2023-04-25T11:31:07;9.40;99.90
30764;DHT22;17497;51.476;7.770;2023-04-25T11:33:33;9.40;99.90
30764;DHT22;17497;51.476;7.770;2023-04-25T11:36:00;9.20;99.90
30764;DHT22;17497;51.476;7.770;2023-04-25T11:38:26;9.20;99.90
30764;DHT22;17497;51.476;7.770;2023-04-25T11:40:54;8.70;99.90
30764;DHT22;17497;51.476;7.770;2023-04-25T11:43:22;8.50;99.90
30764;DHT22;17497;51.476;7.770;2023-04-25T11:45:49;8.60;99.90
30764;DHT22;17497;51.476;7.770;2023-04-25T11:48:17;8.80;99.90
30764;DHT22;17497;51.476;7.770;2023-04-25T11:50:44;9.20;99.90
30764;DHT22;17497;51.476;7.770;2023-04-25T11:53:11;9.20;99.90
30764;DHT22;17497;51.476;7.770;2023-04-25T11:55:38;9.80;99.90
30764;DHT22;17497;51.476;7.770;2023-04-25T11:58:05;10.30;99.90
30764;DHT22;17497;51.476;7.770;2023-04-25T12:00:32;11.10;99.90
30764;DHT22;17497;51.476;7.770;2023-04-25T12:02:59;11.20;99.90
30764;DHT22;17497;51.476;7.770;2023-04-25T12:05:27;11.00;99.90
30764;DHT22;17497;51.476;7.770;2023-04-25T12:08:08;10.50;99.90
30764;DHT22;17497;51.476;7.770;2023-04-25T12:10:37;10.00;99.90
30764;DHT22;17497;51.476;7.770;2023-04-25T12:13:17;9.90;99.90
30764;DHT22;17497;51.476;7.770;2023-04-25T12:15:44;10.20;99.90
30764;DHT22;17497;51.476;7.770;2023-04-25T12:18:10;10.90;99.90
30764;DHT22;17497;51.476;7.770;2023-04-25T12:20:37;10.70;99.90
30764;DHT22;17497;51.476;7.770;2023-04-25T12:23:07;10.90;99.90
30764;DHT22;17497;51.476;7.770;2023-04-25T12:25:44;12.20;99.90
30764;DHT22;17497;51.476;7.770;2023-04-25T12:28:22;13.40;99.90
30764;DHT22;17497;51.476;7.770;2023-04-25T12:33:28;13.00;99.30
30764;DHT22;17497;51.476;7.770;2023-04-25T12:35:55;13.80;99.90
30764;DHT22;17497;51.476;7.770;2023-04-25T12:38:23;14.30;97.30
30764;DHT22;17497;51.476;7.770;2023-04-25T12:40:50;13.20;93.30
30764;DHT22;17497;51.476;7.770;2023-04-25T12:43:16;13.00;96.50
30764;DHT22;17497;51.476;7.770;2023-04-25T12:45:44;13.40;94.90
30764;DHT22;17497;51.476;7.770;2023-04-25T12:48:11;13.10;93.00
30764;DHT22;17497;51.476;7.770;2023-04-25T12:50:38;12.40;97.30
30764;DHT22;17497;51.476;7.770;2023-04-25T12:53:04;12.40;99.90
30764;DHT22;17497;51.476;7.770;2023-04-25T12:55:31;12.30;98.80
30764;DHT22;17497;51.476;7.770;2023-04-25T12:57:58;12.20;97.30
30764;DHT22;17497;51.476;7.770;2023-04-25T13:00:24;12.60;98.30
30764;DHT22;17497;51.476;7.770;2023-04-25T13:02:52;13.20;96.80
30764;DHT22;17497;51.476;7.770;2023-04-25T13:05:19;13.60;96.50
30764;DHT22;17497;51.476;7.770;2023-04-25T13:07:46;13.10;96.10
30764;DHT22;17497;51.476;7.770;2023-04-25T13:10:12;12.40;97.20
30764;DHT22;17497;51.476;7.770;2023-04-25T13:12:39;11.50;97.60
30764;DHT22;17497;51.476;7.770;2023-04-25T13:15:06;10.90;98.20
30764;DHT22;17497;51.476;7.770;2023-04-25T13:17:35;10.70;99.90
30764;DHT22;17497;51.476;7.770;2023-04-25T13:20:02;10.80;99.70
30764;DHT22;17497;51.476;7.770;2023-04-25T13:22:31;10.40;98.20
30764;DHT22;17497;51.476;7.770;2023-04-25T13:24:57;10.30;98.90
30764;DHT22;17497;51.476;7.770;2023-04-25T13:27:24;10.30;99.90
30764;DHT22;17497;51.476;7.770;2023-04-25T13:29:51;10.60;99.90
30764;DHT22;17497;51.476;7.770;2023-04-25T13:32:17;10.60;99.90
30764;DHT22;17497;51.476;7.770;2023-04-25T13:34:44;10.70;99.80
30764;DHT22;17497;51.476;7.770;2023-04-25T13:37:11;10.90;95.60
30764;DHT22;17497;51.476;7.770;2023-04-25T13:39:37;10.80;93.60
30764;DHT22;17497;51.476;7.770;2023-04-25T13:42:04;10.60;94.50
30764;DHT22;17497;51.476;7.770;2023-04-25T13:44:31;10.70;95.10
30764;DHT22;17497;51.476;7.770;2023-04-25T13:46:57;11.40;94.70
30764;DHT22;17497;51.476;7.770;2023-04-25T13:49:24;12.60;93.10
30764;DHT22;17497;51.476;7.770;2023-04-25T13:51:51;12.70;93.40
30764;DHT22;17497;51.476;7.770;2023-04-25T13:54:17;12.80;94.00
30764;DHT22;17497;51.476;7.770;2023-04-25T13:56:44;13.10;92.40
30764;DHT22;17497;51.476;7.770;2023-04-25T13:59:11;13.00;93.30
30764;DHT22;17497;51.476;7.770;2023-04-25T14:01:38;13.30;94.80
30764;DHT22;17497;51.476;7.770;2023-04-25T14:04:05;13.50;93.90
30764;DHT22;17497;51.476;7.770;2023-04-25T14:06:32;13.80;93.50
30764;DHT22;17497;51.476;7.770;2023-04-25T14:08:59;13.80;93.60
30764;DHT22;17497;51.476;7.770;2023-04-25T14:11:27;13.50;92.60
30764;DHT22;17497;51.476;7.770;2023-04-25T14:13:54;12.80;93.70
30764;DHT22;17497;51.476;7.770;2023-04-25T14:16:20;12.10;99.90
30764;DHT22;17497;51.476;7.770;2023-04-25T14:18:47;11.80;97.50
30764;DHT22;17497;51.476;7.770;2023-04-25T14:21:14;11.20;99.40
30764;DHT22;17497;51.476;7.770;2023-04-25T14:23:40;11.00;99.90
30764;DHT22;17497;51.476;7.770;2023-04-25T14:26:07;10.90;99.90
30764;DHT22;17497;51.476;7.770;2023-04-25T14:28:35;10.40;99.90
30764;DHT22;17497;51.476;7.770;2023-04-25T14:31:02;10.30;99.90
30764;DHT22;17497;51.476;7.770;2023-04-25T14:33:29;10.00;99.90
30764;DHT22;17497;51.476;7.770;2023-04-25T14:35:55;9.80;99.90
30764;DHT22;17497;51.476;7.770;2023-04-25T14:38:22;9.90;99.90
30764;DHT22;17497;51.476;7.770;2023-04-25T14:40:51;9.80;99.90
30764;DHT22;17497;51.476;7.770;2023-04-25T14:43:18;9.60;99.90
30764;DHT22;17497;51.476;7.770;2023-04-25T14:45:44;9.80;99.90
30764;DHT22;17497;51.476;7.770;2023-04-25T14:48:11;9.80;99.90
30764;DHT22;17497;51.476;7.770;2023-04-25T14:50:38;9.90;99.90
30764;DHT22;17497;51.476;7.770;2023-04-25T14:53:05;10.10;99.90
30764;DHT22;17497;51.476;7.770;2023-04-25T14:55:31;10.90;99.90
30764;DHT22;17497;51.476;7.770;2023-04-25T14:57:58;11.80;99.90
30764;DHT22;17497;51.476;7.770;2023-04-25T15:00:25;13.40;96.50
30764;DHT22;17497;51.476;7.770;2023-04-25T15:02:51;13.90;96.60
30764;DHT22;17497;51.476;7.770;2023-04-25T15:05:18;13.50;93.30
30764;DHT22;17497;51.476;7.770;2023-04-25T15:07:46;13.90;92.50
30764;DHT22;17497;51.476;7.770;2023-04-25T15:10:14;13.70;92.80
30764;DHT22;17497;51.476;7.770;2023-04-25T15:12:42;14.20;91.60
30764;DHT22;17497;51.476;7.770;2023-04-25T15:15:10;15.00;90.70
30764;DHT22;17497;51.476;7.770;2023-04-25T15:17:40;15.40;93.20
30764;DHT22;17497;51.476;7.770;2023-04-25T15:20:11;15.30;89.30
30764;DHT22;17497;51.476;7.770;2023-04-25T15:22:39;15.00;86.50
30764;DHT22;17497;51.476;7.770;2023-04-25T15:25:06;14.70;93.00
30764;DHT22;17497;51.476;7.770;2023-04-25T15:27:37;13.70;99.60
30764;DHT22;17497;51.476;7.770;2023-04-25T15:30:07;12.20;99.90
30764;DHT22;17497;51.476;7.770;2023-04-25T15:32:34;11.70;99.90
30764;DHT22;17497;51.476;7.770;2023-04-25T15:35:02;11.60;99.90
30764;DHT22;17497;51.476;7.770;2023-04-25T15:37:29;11.50;99.90
30764;DHT22;17497;51.476;7.770;2023-04-25T15:40:06;11.10;99.90
30764;DHT22;17497;51.476;7.770;2023-04-25T15:42:36;11.00;99.90
30764;DHT22;17497;51.476;7.770;2023-04-25T15:45:06;10.80;99.90
30764;DHT22;17497;51.476;7.770;2023-04-25T15:47:33;10.70;99.90
30764;DHT22;17497;51.476;7.770;2023-04-25T15:50:00;10.60;99.90
30764;DHT22;17497;51.476;7.770;2023-04-25T15:52:27;10.50;99.90